sensor_id;sensor_type;location;lat;lon;timestamp;temperature;humidity
16491;DHT22;8356;51.214;3.270;2023-06-04T00:01:19;435.80;2355.20
16491;DHT22;8356;51.214;3.270;2023-06-04T00:03:44;435.80;2355.20
16491;DHT22;8356;51.214;3.270;2023-06-04T00:06:10;435.70;2355.20
16491;DHT22;8356;51.214;3.270;2023-06-04T00:08:36;435.60;2355.20
16491;DHT22;8356;51.214;3.270;2023-06-04T00:11:02;435.60;2355.20
16491;DHT22;8356;51.214;3.270;2023-06-04T00:13:27;435.50;2355.20
16491;DHT22;8356;51.214;3.270;2023-06-04T00:15:53;435.50;2355.20
16491;DHT22;8356;51.214;3.270;2023-06-04T00:18:19;435.30;2355.20
16491;DHT22;8356;51.214;3.270;2023-06-04T00:20:44;435.40;2355.20
16491;DHT22;8356;51.214;3.270;2023-06-04T00:23:10;435.50;2355.20
16491;DHT22;8356;51.214;3.270;2023-06-04T00:25:35;435.50;2355.20
16491;DHT22;8356;51.214;3.270;2023-06-04T00:28:01;435.40;2355.20
16491;DHT22;8356;51.214;3.270;2023-06-04T00:30:27;435.40;2355.20
16491;DHT22;8356;51.214;3.270;2023-06-04T00:32:52;435.50;2355.20
16491;DHT22;8356;51.214;3.270;2023-06-04T00:35:18;435.30;2355.20
16491;DHT22;8356;51.214;3.270;2023-06-04T00:37:44;435.30;2355.20
16491;DHT22;8356;51.214;3.270;2023-06-04T00:40:10;435.30;2355.20
16491;DHT22;8356;51.214;3.270;2023-06-04T00:42:36;435.20;2355.20
16491;DHT22;8356;51.214;3.270;2023-06-04T00:45:03;435.20;2355.20
16491;DHT22;8356;51.214;3.270;2023-06-04T00:47:29;410.50;2355.20
16491;DHT22;8356;51.214;3.270;2023-06-04T00:49:57;410.50;2355.20
16491;DHT22;8356;51.214;3.270;2023-06-04T00:52:23;410.40;2355.20
16491;DHT22;8356;51.214;3.270;2023-06-04T00:54:50;410.30;2355.20
16491;DHT22;8356;51.214;3.270;2023-06-04T00:57:16;410.40;2355.20
16491;DHT22;8356;51.214;3.270;2023-06-04T00:59:41;435.20;2355.20
16491;DHT22;8356;51.214;3.270;2023-06-04T01:02:21;435.30;2355.20
16491;DHT22;8356;51.214;3.270;2023-06-04T01:07:39;435.40;2355.20
16491;DHT22;8356;51.214;3.270;2023-06-04T01:10:06;435.50;2355.20
16491;DHT22;8356;51.214;3.270;2023-06-04T01:12:33;435.40;2355.20
16491;DHT22;8356;51.214;3.270;2023-06-04T01:14:58;435.20;2355.20
16491;DHT22;8356;51.214;3.270;2023-06-04T01:17:59;435.20;2355.20
16491;DHT22;8356;51.214;3.270;2023-06-04T01:20:43;410.50;2355.20
16491;DHT22;8356;51.214;3.270;2023-06-04T01:25:44;410.30;2355.20
16491;DHT22;8356;51.214;3.270;2023-06-04T01:28:15;410.30;2355.20
16491;DHT22;8356;51.214;3.270;2023-06-04T01:30:44;410.30;2355.20
16491;DHT22;8356;51.214;3.270;2023-06-04T01:33:16;410.20;2355.20
16491;DHT22;8356;51.214;3.270;2023-06-04T01:35:42;410.20;2355.20
16491;DHT22;8356;51.214;3.270;2023-06-04T01:38:08;410.30;2355.20
16491;DHT22;8356;51.214;3.270;2023-06-04T01:40:34;410.40;2355.20
16491;DHT22;8356;51.214;3.270;2023-06-04T01:43:00;410.30;2355.20
16491;DHT22;8356;51.214;3.270;2023-06-04T01:45:27;410.20;2355.20
16491;DHT22;8356;51.214;3.270;2023-06-04T01:47:53;410.20;2355.20
16491;DHT22;8356;51.214;3.270;2023-06-04T01:50:20;410.20;2355.20
16491;DHT22;8356;51.214;3.270;2023-06-04T01:52:45;410.00;2355.20
16491;DHT22;8356;51.214;3.270;2023-06-04T01:55:13;409.90;2355.20
16491;DHT22;8356;51.214;3.270;2023-06-04T01:57:40;410.20;2355.20
16491;DHT22;8356;51.214;3.270;2023-06-04T02:00:07;410.30;2355.20
16491;DHT22;8356;51.214;3.270;2023-06-04T02:02:35;410.10;2355.20
16491;DHT22;8356;51.214;3.270;2023-06-04T02:05:04;410.00;2355.20
16491;DHT22;8356;51.214;3.270;2023-06-04T02:07:36;410.00;2355.20
16491;DHT22;8356;51.214;3.270;2023-06-04T02:12:32;410.00;2355.20
16491;DHT22;8356;51.214;3.270;2023-06-04T02:14:58;410.00;2355.20
16491;DHT22;8356;51.214;3.270;2023-06-04T02:17:24;409.90;2355.20
16491;DHT22;8356;51.214;3.270;2023-06-04T02:19:50;409.80;2355.20
16491;DHT22;8356;51.214;3.270;2023-06-04T02:22:19;410.00;2355.20
16491;DHT22;8356;51.214;3.270;2023-06-04T02:24:45;410.10;2355.20
16491;DHT22;8356;51.214;3.270;2023-06-04T02:27:12;410.20;2355.20
16491;DHT22;8356;51.214;3.270;2023-06-04T02:29:39;410.20;2355.20
16491;DHT22;8356;51.214;3.270;2023-06-04T02:32:05;410.40;2355.20
16491;DHT22;8356;51.214;3.270;2023-06-04T02:39:23;409.80;2355.20
16491;DHT22;8356;51.214;3.270;2023-06-04T02:41:49;409.70;2355.20
16491;DHT22;8356;51.214;3.270;2023-06-04T02:44:15;409.80;2355.20
16491;DHT22;8356;51.214;3.270;2023-06-04T02:46:41;409.90;2355.20
16491;DHT22;8356;51.214;3.270;2023-06-04T02:49:06;409.80;2355.20
16491;DHT22;8356;51.214;3.270;2023-06-04T02:51:32;409.80;2355.20
16491;DHT22;8356;51.214;3.270;2023-06-04T02:56:24;409.90;2355.20
16491;DHT22;8356;51.214;3.270;2023-06-04T02:58:54;409.90;2355.20
16491;DHT22;8356;51.214;3.270;2023-06-04T03:01:22;409.90;2355.20
16491;DHT22;8356;51.214;3.270;2023-06-04T03:03:48;409.80;2355.20
16491;DHT22;8356;51.214;3.270;2023-06-04T03:06:16;409.80;2355.20
16491;DHT22;8356;51.214;3.270;2023-06-04T03:08:42;409.80;2355.20
16491;DHT22;8356;51.214;3.270;2023-06-04T06:48:28;435.70;2355.20
16491;DHT22;8356;51.214;3.270;2023-06-04T06:50:55;435.70;2355.20
16491;DHT22;8356;51.214;3.270;2023-06-04T06:53:21;435.70;2355.20
16491;DHT22;8356;51.214;3.270;2023-06-04T06:55:46;435.80;2355.20
16491;DHT22;8356;51.214;3.270;2023-06-04T06:58:12;435.80;2355.20
16491;DHT22;8356;51.214;3.270;2023-06-04T07:00:38;435.90;2355.20
16491;DHT22;8356;51.214;3.270;2023-06-04T07:03:03;436.10;2355.20
16491;DHT22;8356;51.214;3.270;2023-06-04T07:05:30;460.80;2380.80
16491;DHT22;8356;51.214;3.270;2023-06-04T07:07:56;461.00;2380.80
16491;DHT22;8356;51.214;3.270;2023-06-04T07:10:23;461.20;2380.80
16491;DHT22;8356;51.214;3.270;2023-06-04T07:12:48;461.40;2380.80
16491;DHT22;8356;51.214;3.270;2023-06-04T07:15:14;461.40;2380.80
16491;DHT22;8356;51.214;3.270;2023-06-04T07:17:40;461.50;2380.80
16491;DHT22;8356;51.214;3.270;2023-06-04T07:20:06;486.40;2380.80
16491;DHT22;8356;51.214;3.270;2023-06-04T07:22:35;486.70;2380.80
16491;DHT22;8356;51.214;3.270;2023-06-04T07:25:01;486.90;2380.80
16491;DHT22;8356;51.214;3.270;2023-06-04T07:27:27;487.00;2380.80
16491;DHT22;8356;51.214;3.270;2023-06-04T07:29:52;487.20;2380.80
16491;DHT22;8356;51.214;3.270;2023-06-04T07:32:18;487.20;2380.80
16491;DHT22;8356;51.214;3.270;2023-06-04T07:34:44;487.30;2380.80
16491;DHT22;8356;51.214;3.270;2023-06-04T07:37:09;487.30;2380.80
16491;DHT22;8356;51.214;3.270;2023-06-04T07:39:35;487.20;2380.80
16491;DHT22;8356;51.214;3.270;2023-06-04T07:42:01;487.30;2380.80
16491;DHT22;8356;51.214;3.270;2023-06-04T07:44:27;512.00;2380.80
16491;DHT22;8356;51.214;3.270;2023-06-04T07:46:52;512.00;2380.80
16491;DHT22;8356;51.214;3.270;2023-06-04T07:49:18;512.20;2380.80
16491;DHT22;8356;51.214;3.270;2023-06-04T07:51:44;512.30;2380.80
16491;DHT22;8356;51.214;3.270;2023-06-04T07:54:10;512.40;2380.80
16491;DHT22;8356;51.214;3.270;2023-06-04T07:56:35;512.60;2380.80
16491;DHT22;8356;51.214;3.270;2023-06-04T07:59:01;512.80;2380.80
16491;DHT22;8356;51.214;3.270;2023-06-04T08:01:27;512.90;2380.80
16491;DHT22;8356;51.214;3.270;2023-06-04T08:03:52;537.60;2406.40
16491;DHT22;8356;51.214;3.270;2023-06-04T08:06:18;537.70;2406.40
16491;DHT22;8356;51.214;3.270;2023-06-04T08:08:45;537.70;2406.40
16491;DHT22;8356;51.214;3.270;2023-06-04T08:11:12;537.80;2406.40
16491;DHT22;8356;51.214;3.270;2023-06-04T08:13:39;538.00;2406.40
16491;DHT22;8356;51.214;3.270;2023-06-04T08:16:05;538.20;2406.40
16491;DHT22;8356;51.214;3.270;2023-06-04T08:18:31;538.30;2406.40
16491;DHT22;8356;51.214;3.270;2023-06-04T08:20:57;538.50;2406.40
